Meteorological Aerodrome Report (METAR)

METAR

Data at: 1120 UTC 20 Feb 2019

METAR for:NVSC (Sola/Vanua Lava Arpt, --, NV)
Text:NVSC 200900Z 00000KT 9999 SCT018 BKN100 26/25 Q1005 RMK NIL
Temperature: 26.0°C ( 79°F)
Dewpoint: 25.0°C ( 77°F) [RH = 94%]
Pressure (altimeter):29.68 inches Hg (1005.0 mb)
Winds:calm
Visibility:6 or more sm (10+ km)
Ceiling:10000 feet AGL
Clouds: scattered clouds at 1800 feet AGL, broken clouds at 10000 feet AGL

METAR

Data at: 1120 UTC 20 Feb 2019

METAR for:NVSG (Longana Arpt, --, NV)
Text:No data found

METAR

Data at: 1120 UTC 20 Feb 2019

METAR for:NVSS (Santo/Pekoa Intl, --, NV)
Text:NVSS 200900Z 01004KT 9999 FEW020 BKN120 25/25 Q1004 RMK RESH
Temperature: 25.0°C ( 77°F)
Dewpoint: 25.0°C ( 77°F) [RH = 100%]
Pressure (altimeter):29.65 inches Hg (1004.0 mb)
Winds:from the N (10 degrees) at 5 MPH (4 knots; 2.1 m/s)
Visibility:6 or more sm (10+ km)
Ceiling:12000 feet AGL
Clouds: few clouds at 2000 feet AGL, broken clouds at 12000 feet AGL

METAR

Data at: 1120 UTC 20 Feb 2019

METAR for:NVSL (Malekula/Lamap, --, NV)
Text:NVSL 200900Z AUTO 35017KT //// // NCD 28/24 Q1003 RMK NIL
Temperature: 28.0°C ( 82°F)
Dewpoint: 24.0°C ( 75°F) [RH = 79%]
Pressure (altimeter):29.62 inches Hg (1003.0 mb)
Winds:from the N (350 degrees) at 20 MPH (17 knots; 8.7 m/s)
Ceiling:at least 12,000 feet AGL
Clouds:sky clear below 12,000 feet AGL

METAR

Data at: 1120 UTC 20 Feb 2019

METAR for:NVSP (Norsup Arpt, --, NV)
Text:No data found

METAR

Data at: 1120 UTC 20 Feb 2019

METAR for:NVVV (Efate/Bauerfield Int, --, NV)
Text:NVVV 201000Z 35004KT 9999 SCT020 BKN040 26/25 Q1004 RMK RESH
Temperature: 26.0°C ( 79°F)
Dewpoint: 25.0°C ( 77°F) [RH = 94%]
Pressure (altimeter):29.65 inches Hg (1004.0 mb)
Winds:from the N (350 degrees) at 5 MPH (4 knots; 2.1 m/s)
Visibility:6 or more sm (10+ km)
Ceiling:4000 feet AGL
Clouds: scattered clouds at 2000 feet AGL, broken clouds at 4000 feet AGL

METAR

Data at: 1120 UTC 20 Feb 2019

METAR for:NVVW (Tanna Arpt, --, NV)
Text:NVVW 200900Z AUTO 02006KT //// // NCD 27/23 Q1003 RMK NIL
Temperature: 27.0°C ( 81°F)
Dewpoint: 23.0°C ( 73°F) [RH = 79%]
Pressure (altimeter):29.62 inches Hg (1003.0 mb)
Winds:from the NNE (20 degrees) at 7 MPH (6 knots; 3.1 m/s)
Ceiling:at least 12,000 feet AGL
Clouds:sky clear below 12,000 feet AGL

METAR

Data at: 1120 UTC 20 Feb 2019

METAR for:NVVA (Aneityum/Mystery Isl, --, NV)
Text:NVVA 200900Z 36010KT 9999 BKN022 29/23 Q1004 RMK NIL
Temperature: 29.0°C ( 84°F)
Dewpoint: 23.0°C ( 73°F) [RH = 70%]
Pressure (altimeter):29.65 inches Hg (1004.0 mb)
Winds:from the N (360 degrees) at 12 MPH (10 knots; 5.1 m/s)
Visibility:6 or more sm (10+ km)
Ceiling:2200 feet AGL
Clouds: broken clouds at 2200 feet AGL

METAR

Data at: 1120 UTC 20 Feb 2019

NVVV 201000Z 35004KT 9999 SCT020 BKN040 26/25 Q1004 RMK RESH
NVSC 200900Z 00000KT 9999 SCT018 BKN100 26/25 Q1005 RMK NIL
No Data available for NVSG
NVSS 200900Z 01004KT 9999 FEW020 BKN120 25/25 Q1004 RMK RESH
NVSL 200900Z AUTO 35017KT //// // NCD 28/24 Q1003 RMK NIL
No Data available for NVSP
NVVW 200900Z AUTO 02006KT //// // NCD 27/23 Q1003 RMK NIL
NVVA 200900Z 36010KT 9999 BKN022 29/23 Q1004 RMK NIL